createdAt,value
2023-05-12T00:04:40.589Z,11.99
2023-05-12T00:10:42.694Z,12.07
2023-05-12T00:16:44.731Z,12.02
2023-05-12T00:22:46.698Z,12.07
2023-05-12T00:28:48.797Z,11.98
2023-05-12T00:34:50.976Z,11.97
2023-05-12T00:40:52.864Z,11.74
2023-05-12T00:46:55.337Z,11.57
2023-05-12T00:52:58.457Z,11.69
2023-05-12T00:59:00.337Z,11.46
2023-05-12T01:05:03.167Z,11.50
2023-05-12T01:11:05.157Z,11.44
2023-05-12T01:17:15.785Z,11.49
2023-05-12T01:23:20.133Z,11.53
2023-05-12T01:29:23.386Z,11.62
2023-05-12T01:35:25.450Z,11.63
2023-05-12T01:41:27.330Z,11.63
2023-05-12T01:47:29.275Z,11.57
2023-05-12T01:53:31.222Z,11.70
2023-05-12T01:59:33.128Z,11.71
2023-05-12T02:05:35.547Z,11.80
2023-05-12T02:11:37.489Z,11.74
2023-05-12T02:17:39.470Z,11.78
2023-05-12T02:23:41.541Z,11.88
2023-05-12T02:29:43.440Z,11.81
2023-05-12T02:35:45.786Z,11.88
2023-05-12T02:41:48.018Z,11.92
2023-05-12T02:47:49.969Z,11.95
2023-05-12T02:53:52.301Z,11.80
2023-05-12T02:59:54.189Z,11.83
2023-05-12T03:05:56.214Z,11.73
2023-05-12T03:11:58.155Z,11.87
2023-05-12T03:18:00.247Z,11.72
2023-05-12T03:24:02.212Z,11.83
2023-05-12T03:30:05.678Z,11.75
2023-05-12T03:36:07.996Z,11.82
2023-05-12T03:42:09.879Z,11.76
2023-05-12T03:48:11.816Z,11.87
2023-05-12T03:54:13.767Z,11.92
2023-05-12T04:00:18.446Z,11.85
2023-05-12T04:06:20.649Z,11.84
2023-05-12T04:12:22.619Z,11.92
2023-05-12T04:18:26.362Z,11.92
2023-05-12T04:24:28.378Z,12.06
2023-05-12T04:30:30.291Z,12.23
2023-05-12T04:36:33.625Z,12.21
2023-05-12T04:42:35.831Z,12.36
2023-05-12T04:48:41.900Z,12.41
2023-05-12T04:54:43.823Z,12.47
2023-05-12T05:00:45.900Z,12.51
2023-05-12T05:06:47.794Z,12.78
2023-05-12T05:12:49.701Z,12.92
2023-05-12T05:18:52.096Z,12.94
2023-05-12T05:24:54.036Z,13.21
2023-05-12T05:30:55.988Z,13.48
2023-05-12T05:36:57.885Z,13.54
2023-05-12T05:42:59.927Z,13.68
2023-05-12T05:49:01.819Z,13.82
2023-05-12T05:55:03.929Z,14.11
2023-05-12T06:01:06.011Z,14.30
2023-05-12T06:07:07.957Z,14.55
2023-05-12T06:13:10.044Z,14.65
2023-05-12T06:19:12.639Z,14.93
2023-05-12T06:25:14.821Z,15.15
2023-05-12T06:31:17.031Z,15.64
2023-05-12T06:37:18.991Z,15.51
2023-05-12T06:43:20.904Z,15.82
2023-05-12T06:49:23.098Z,16.03
2023-05-12T06:55:25.055Z,16.20
2023-05-12T07:01:31.789Z,16.45
2023-05-12T07:24:00.937Z,17.55
2023-05-12T08:47:40.188Z,23.33
2023-05-12T10:47:52.142Z,26.73
2023-05-12T11:01:40.263Z,25.86
2023-05-12T11:54:31.193Z,23.36
2023-05-12T12:01:36.170Z,25.79
2023-05-12T12:38:49.231Z,28.78
2023-05-12T12:53:39.844Z,25.50
2023-05-12T13:06:47.763Z,26.72
2023-05-12T13:20:38.134Z,29.55
2023-05-12T13:26:43.421Z,30.45
2023-05-12T14:18:55.942Z,33.38
2023-05-12T14:25:56.842Z,31.49
2023-05-12T14:32:18.436Z,29.78
2023-05-12T14:38:20.949Z,30.70
2023-05-12T14:44:29.145Z,31.04
2023-05-12T14:58:59.747Z,27.12
2023-05-12T15:13:21.293Z,30.85
2023-05-12T15:19:38.163Z,33.45
2023-05-12T15:25:41.882Z,34.87
2023-05-12T15:54:04.635Z,31.40
2023-05-12T16:00:38.721Z,32.99
2023-05-12T16:07:06.226Z,33.59
2023-05-12T16:14:09.026Z,30.07
2023-05-12T16:20:15.543Z,27.58
2023-05-12T16:26:44.788Z,25.97
2023-05-12T16:32:50.876Z,24.84
2023-05-12T16:39:22.270Z,24.37
2023-05-12T16:46:33.531Z,26.02
2023-05-12T16:52:43.218Z,28.10
2023-05-12T16:58:54.584Z,28.61
2023-05-12T17:05:13.678Z,29.76
2023-05-12T17:12:11.698Z,29.54
2023-05-12T17:19:13.598Z,27.68
2023-05-12T17:25:37.944Z,24.87
2023-05-12T17:32:01.081Z,23.92
2023-05-12T17:38:09.434Z,23.01
2023-05-12T17:44:15.111Z,22.33
2023-05-12T17:50:30.947Z,22.02
2023-05-12T17:56:33.556Z,21.41
2023-05-12T18:03:24.649Z,20.96
2023-05-12T18:10:14.483Z,20.49
2023-05-12T18:16:27.986Z,20.06
2023-05-12T18:31:00.302Z,21.31
2023-05-12T18:37:17.828Z,20.58
2023-05-12T18:52:05.425Z,18.79
2023-05-12T18:58:29.472Z,18.41
2023-05-12T19:04:31.372Z,18.23
2023-05-12T19:10:33.269Z,18.04
2023-05-12T19:16:36.302Z,17.75
2023-05-12T19:22:38.379Z,17.50
2023-05-12T19:28:40.302Z,17.30
2023-05-12T19:34:42.241Z,16.98
2023-05-12T19:40:44.287Z,17.02
2023-05-12T19:46:47.042Z,16.88
2023-05-12T19:52:49.018Z,16.78
2023-05-12T19:58:52.277Z,16.80
2023-05-12T20:04:54.528Z,16.70
2023-05-12T20:10:56.528Z,16.81
2023-05-12T20:16:59.062Z,16.66
2023-05-12T20:23:01.311Z,16.69
2023-05-12T20:29:03.275Z,16.67
2023-05-12T20:35:07.006Z,16.57
2023-05-12T20:41:08.972Z,16.54
2023-05-12T20:47:11.110Z,16.98
2023-05-12T20:53:13.047Z,17.02
2023-05-12T20:59:15.120Z,17.07
2023-05-12T21:05:17.003Z,16.98
2023-05-12T21:11:19.418Z,16.91
2023-05-12T21:17:21.766Z,16.66
2023-05-12T21:23:23.724Z,16.53
2023-05-12T21:29:25.655Z,16.48
2023-05-12T21:35:27.620Z,16.34
2023-05-12T21:41:30.164Z,16.22
2023-05-12T21:47:32.088Z,16.13
2023-05-12T21:53:34.041Z,16.05
2023-05-12T21:59:35.949Z,15.79
2023-05-12T22:05:37.905Z,15.94
2023-05-12T22:11:39.789Z,16.07
2023-05-12T22:17:41.843Z,16.03
2023-05-12T22:23:43.812Z,16.27
2023-05-12T22:29:45.777Z,16.16
2023-05-12T22:35:47.671Z,15.95
2023-05-12T22:41:49.559Z,15.91
2023-05-12T22:47:51.450Z,15.60
2023-05-12T22:53:53.359Z,15.45
2023-05-12T22:59:55.450Z,15.38
2023-05-12T23:05:57.316Z,15.34
2023-05-12T23:11:59.194Z,15.30
2023-05-12T23:18:01.230Z,15.00
2023-05-12T23:24:03.270Z,15.00
2023-05-12T23:30:06.519Z,14.86
2023-05-12T23:36:08.999Z,14.49
2023-05-12T23:42:10.921Z,14.24
2023-05-12T23:48:12.886Z,14.00
2023-05-12T23:54:14.824Z,13.61
